createdAt,value
2024-01-15T00:00:08.924Z,97150.23
2024-01-15T00:01:08.327Z,97151.3
2024-01-15T00:02:08.694Z,97148.31
2024-01-15T00:03:09.367Z,97149.36
2024-01-15T00:04:09.178Z,97147.98
2024-01-15T00:05:09.801Z,97149.94
2024-01-15T00:06:10.072Z,97147.19
2024-01-15T00:07:10.805Z,97151.97
2024-01-15T00:08:10.824Z,97151.66
2024-01-15T00:09:10.934Z,97150.09
2024-01-15T00:10:11.533Z,97147.33
2024-01-15T00:11:11.970Z,97154.94
2024-01-15T00:12:12.661Z,97150.89
2024-01-15T00:13:12.937Z,97149.91
2024-01-15T00:14:12.938Z,97149.53
2024-01-15T00:15:13.601Z,97146.94
2024-01-15T00:16:13.870Z,97146.73
2024-01-15T00:17:14.201Z,97152.73
2024-01-15T00:18:14.653Z,97152.17
2024-01-15T00:19:14.946Z,97147.08
2024-01-15T00:20:15.546Z,97142.89
2024-01-15T00:21:15.648Z,97146.91
2024-01-15T00:22:16.053Z,97142.9
2024-01-15T00:23:16.515Z,97140.87
2024-01-15T00:24:17.204Z,97141.66
2024-01-15T00:25:17.299Z,97139.23
2024-01-15T00:26:17.522Z,97137.45
2024-01-15T00:27:18.152Z,97134.8
2024-01-15T00:28:18.366Z,97131.63
2024-01-15T00:29:18.552Z,97135.45
2024-01-15T00:30:19.236Z,97138.11
2024-01-15T00:31:19.568Z,97138.03
2024-01-15T00:32:19.817Z,97134.99
2024-01-15T00:33:20.524Z,97135.63
2024-01-15T00:34:20.756Z,97136.3
2024-01-15T00:35:21.073Z,97132.47
2024-01-15T00:36:21.948Z,97135.55
2024-01-15T00:37:21.780Z,97133.67
2024-01-15T00:38:22.304Z,97133.45
2024-01-15T00:39:22.547Z,97136.22
2024-01-15T00:40:22.649Z,97134.6
2024-01-15T00:41:23.256Z,97135.25
2024-01-15T00:42:23.736Z,97130.39
2024-01-15T00:43:24.096Z,97133.59
2024-01-15T00:44:24.395Z,97132.22
2024-01-15T00:45:24.849Z,97129
2024-01-15T00:46:25.221Z,97127.76
2024-01-15T00:47:25.575Z,97123.36
2024-01-15T00:48:26.192Z,97122.47
2024-01-15T00:49:28.238Z,97121.03
2024-01-15T00:50:26.641Z,97119.98
2024-01-15T00:51:27.135Z,97124.4
2024-01-15T00:52:27.405Z,97121.87
2024-01-15T00:53:28.034Z,97121.06
2024-01-15T00:54:28.505Z,97125.44
2024-01-15T00:55:29.887Z,97124.31
2024-01-15T00:56:28.877Z,97122.23
2024-01-15T00:57:29.428Z,97121.8
2024-01-15T00:58:29.709Z,97122.72
2024-01-15T00:59:29.966Z,97123.22
2024-01-15T01:00:30.635Z,97127.56
2024-01-15T01:01:31.043Z,97126.71
2024-01-15T01:02:31.184Z,97126.63
2024-01-15T01:03:31.812Z,97124.92
2024-01-15T01:04:31.940Z,97121.46
2024-01-15T01:05:32.370Z,97116.47
2024-01-15T01:06:34.426Z,97116.55
2024-01-15T01:07:33.259Z,97119.77
2024-01-15T01:08:33.589Z,97119.59
2024-01-15T01:09:34.042Z,97116.61
2024-01-15T01:10:34.215Z,97114.08
2024-01-15T01:11:34.726Z,97118.17
2024-01-15T01:12:35.235Z,97113.7
2024-01-15T01:13:35.546Z,97107.9
2024-01-15T01:14:35.921Z,97106.02
2024-01-15T01:15:36.357Z,97107.61
2024-01-15T01:16:36.677Z,97108.9
2024-01-15T01:17:37.148Z,97107.89
2024-01-15T01:18:37.734Z,97109
2024-01-15T01:19:37.794Z,97101.66
2024-01-15T01:20:38.262Z,97102.58
2024-01-15T01:21:38.708Z,97102.64
2024-01-15T01:22:38.883Z,97101.23
2024-01-15T01:23:39.590Z,97101.09
2024-01-15T01:24:39.773Z,97101.19
2024-01-15T01:25:39.999Z,97104.04
2024-01-15T01:26:40.447Z,97102.9
2024-01-15T01:27:40.688Z,97098.66
2024-01-15T01:28:41.284Z,97098.05
2024-01-15T01:29:41.489Z,97096.99
2024-01-15T01:30:43.559Z,97096.2
2024-01-15T01:31:45.006Z,97096.9
2024-01-15T01:32:44.345Z,97099.33
2024-01-15T01:33:44.753Z,97092.61
2024-01-15T01:34:44.985Z,97093.09
2024-01-15T01:35:45.569Z,97096.41
2024-01-15T01:36:45.988Z,97092.95
2024-01-15T01:37:46.034Z,97096.22
2024-01-15T01:38:46.663Z,97091.03
2024-01-15T01:39:47.033Z,97088.89
2024-01-15T01:40:47.237Z,97088.83
2024-01-15T01:41:47.629Z,97085.52
2024-01-15T01:42:50.192Z,97083.28
2024-01-15T01:43:48.603Z,97088.2
2024-01-15T01:44:48.797Z,97086.41
2024-01-15T01:45:49.505Z,97081.02
2024-01-15T01:46:49.894Z,97084.27
2024-01-15T01:47:50.208Z,97083.45
2024-01-15T01:48:50.665Z,97084.85
2024-01-15T01:49:50.865Z,97080.97
2024-01-15T01:50:51.178Z,97078.39
2024-01-15T01:51:52.322Z,97077.03
2024-01-15T01:52:52.100Z,97076.65
2024-01-15T01:53:52.925Z,97083.29
2024-01-15T01:54:53.765Z,97081.58
2024-01-15T01:55:54.367Z,97072.59
2024-01-15T01:56:53.626Z,97072.66
2024-01-15T01:57:54.658Z,97075.97
2024-01-15T01:58:54.937Z,97081.7
2024-01-15T01:59:55.111Z,97077.16
2024-01-15T02:00:55.333Z,97077.09
2024-01-15T02:01:58.447Z,97070.36
2024-01-15T02:02:56.069Z,97077.91
2024-01-15T02:03:56.495Z,97078.78
2024-01-15T02:04:56.849Z,97078.14
2024-01-15T02:05:57.926Z,97074.25
2024-01-15T02:06:57.550Z,97072.17
2024-01-15T02:07:57.919Z,97075.23
2024-01-15T02:08:58.948Z,97069.53
2024-01-15T02:09:58.663Z,97069.84
2024-01-15T02:10:59.258Z,97067.15
2024-01-15T02:11:59.382Z,97071.1
2024-01-15T02:12:59.717Z,97071.47
2024-01-15T02:14:00.541Z,97070.02
2024-01-15T02:15:00.825Z,97067.32
2024-01-15T02:16:00.973Z,97066.81
2024-01-15T02:17:01.558Z,97069.5
2024-01-15T02:18:06.312Z,97068.97
2024-01-15T02:19:04.289Z,97066.05
2024-01-15T02:20:05.194Z,97070.82
2024-01-15T02:21:05.322Z,97064.83
2024-01-15T02:22:05.599Z,97068.2
2024-01-15T02:23:15.932Z,97061.27
2024-01-15T02:24:09.092Z,97060.12
2024-01-15T02:25:09.148Z,97058.55
2024-01-15T02:26:10.079Z,97062.96
2024-01-15T02:27:10.576Z,97063.46
2024-01-15T02:28:11.874Z,97061.63
2024-01-15T02:29:10.651Z,97059.67
2024-01-15T02:30:15.021Z,97058.4
2024-01-15T02:31:12.783Z,97060.65
2024-01-15T02:32:13.432Z,97062.69
2024-01-15T02:33:14.608Z,97058.8
2024-01-15T02:34:14.139Z,97059.17
2024-01-15T02:35:14.097Z,97060.07
2024-01-15T02:36:14.699Z,97060.36
2024-01-15T02:37:15.627Z,97061.57
2024-01-15T02:38:15.216Z,97063.12
2024-01-15T02:39:15.816Z,97060.29
2024-01-15T02:40:16.366Z,97062.7
2024-01-15T02:41:16.593Z,97061.44
2024-01-15T02:42:16.903Z,97066.45
2024-01-15T02:43:17.205Z,97059.47
2024-01-15T02:44:17.787Z,97062.06
2024-01-15T02:45:18.437Z,97059.45
2024-01-15T02:46:18.452Z,97062.37
2024-01-15T02:47:18.854Z,97059.64
2024-01-15T02:48:19.389Z,97060.08
2024-01-15T02:49:19.850Z,97059.95
2024-01-15T02:50:19.926Z,97055.35
2024-01-15T02:51:20.426Z,97056.88
2024-01-15T02:52:20.839Z,97053.9
2024-01-15T02:53:21.264Z,97056.56
2024-01-15T02:54:21.587Z,97055.53
2024-01-15T02:55:21.900Z,97053.41
2024-01-15T02:56:22.187Z,97051.12
2024-01-15T02:57:22.673Z,97053.25
2024-01-15T02:58:23.348Z,97052.2
2024-01-15T02:59:23.398Z,97051.5
2024-01-15T03:00:23.793Z,97049.16
2024-01-15T03:01:24.102Z,97046.97
2024-01-15T03:02:24.593Z,97048.62
2024-01-15T03:03:24.996Z,97045.29
2024-01-15T03:04:25.622Z,97042.76
2024-01-15T03:05:25.656Z,97046
2024-01-15T03:06:26.134Z,97046.09
2024-01-15T03:07:26.877Z,97044.66
2024-01-15T03:08:26.786Z,97043.31
2024-01-15T03:09:27.358Z,97045.7
2024-01-15T03:10:27.835Z,97046.27
2024-01-15T03:11:28.036Z,97043.84
2024-01-15T03:12:28.374Z,97046.52
2024-01-15T03:13:28.856Z,97043.06
2024-01-15T03:14:29.223Z,97042.66
2024-01-15T03:15:29.581Z,97039.26
2024-01-15T03:16:29.906Z,97038.58
2024-01-15T03:17:30.347Z,97040.03
2024-01-15T03:18:31.041Z,97042.45
2024-01-15T03:19:31.396Z,97036.44
2024-01-15T03:20:32.199Z,97031.17
2024-01-15T03:21:32.034Z,97033.35
2024-01-15T03:22:32.297Z,97038.56
2024-01-15T03:23:32.663Z,97033.65
2024-01-15T03:24:34.077Z,97037.42
2024-01-15T03:25:33.360Z,97037.92
2024-01-15T03:26:33.727Z,97036.86
2024-01-15T03:27:34.306Z,97036.33
2024-01-15T03:28:34.697Z,97037.14
2024-01-15T03:29:35.028Z,97034.73
2024-01-15T03:30:35.565Z,97034.92
2024-01-15T03:31:35.803Z,97036.52
2024-01-15T03:32:36.344Z,97031.62
2024-01-15T03:33:36.546Z,97036.62
2024-01-15T03:34:37.278Z,97033.77
2024-01-15T03:35:37.228Z,97032.75
2024-01-15T03:36:37.866Z,97037.28
2024-01-15T03:37:38.476Z,97035.63
2024-01-15T03:38:42.541Z,97033.95
2024-01-15T03:39:40.199Z,97029.58
2024-01-15T03:40:40.740Z,97031.12
2024-01-15T03:41:40.685Z,97029.98
2024-01-15T03:42:41.322Z,97032.08
2024-01-15T03:43:41.759Z,97033
2024-01-15T03:44:41.921Z,97030.97
2024-01-15T03:45:42.226Z,97027.88
2024-01-15T03:46:42.675Z,97029.2
2024-01-15T03:47:43.246Z,97028.3
2024-01-15T03:48:43.672Z,97027.59
2024-01-15T03:49:44.120Z,97026.41
2024-01-15T03:50:44.372Z,97029.82
2024-01-15T03:51:44.777Z,97025.98
2024-01-15T03:52:45.120Z,97021.3
2024-01-15T03:53:45.729Z,97019.62
2024-01-15T03:54:45.965Z,97020.41
2024-01-15T03:55:46.358Z,97017.62
2024-01-15T03:56:46.558Z,97020.23
2024-01-15T03:57:47.776Z,97020.7
2024-01-15T03:58:48.204Z,97020.36
2024-01-15T03:59:48.715Z,97018.49
2024-01-15T04:00:49.214Z,97019.38
2024-01-15T04:01:52.335Z,97015.72
2024-01-15T04:02:49.872Z,97013.2
2024-01-15T04:03:50.124Z,97018.57
2024-01-15T04:04:50.881Z,97017.82
2024-01-15T04:05:51.098Z,97015.23
2024-01-15T04:06:51.481Z,97016.12
2024-01-15T04:07:51.750Z,97013.02
2024-01-15T04:08:52.016Z,97010.96
2024-01-15T04:09:52.655Z,97011.36
2024-01-15T04:10:52.886Z,97010.33
2024-01-15T04:11:53.435Z,97009.59
2024-01-15T04:12:54.036Z,97010.88
2024-01-15T04:13:54.047Z,97009.84
2024-01-15T04:14:54.557Z,97004.98
2024-01-15T04:15:54.872Z,97010.16
2024-01-15T04:16:55.197Z,97009.3
2024-01-15T04:17:55.867Z,97004.7
2024-01-15T04:18:56.135Z,97007.42
2024-01-15T04:19:56.549Z,97004.41
2024-01-15T04:20:56.877Z,97006.97
2024-01-15T04:21:57.205Z,97006.94
2024-01-15T04:22:57.529Z,97008.18
2024-01-15T04:23:58.009Z,97008.52
2024-01-15T04:24:59.160Z,97004.23
2024-01-15T04:25:58.551Z,97003.32
2024-01-15T04:26:59.261Z,97002.5
2024-01-15T04:27:59.556Z,97001.77
2024-01-15T04:28:59.901Z,97001.36
2024-01-15T04:30:00.499Z,97000.81
2024-01-15T04:31:00.842Z,96996.12
2024-01-15T04:32:01.250Z,96991.11
2024-01-15T04:33:01.714Z,96989.05
2024-01-15T04:34:02.055Z,96988.69
2024-01-15T04:35:02.292Z,96988.4
2024-01-15T04:36:04.142Z,96992.31
2024-01-15T04:37:03.522Z,96991.5
2024-01-15T04:38:03.881Z,96991.23
2024-01-15T04:39:04.252Z,96989.72
2024-01-15T04:40:05.078Z,96990.95
2024-01-15T04:41:04.986Z,96988.16
2024-01-15T04:42:05.651Z,96988.17
2024-01-15T04:43:05.312Z,96988.14
2024-01-15T04:44:05.932Z,96989.83
2024-01-15T04:45:06.975Z,96986.38
2024-01-15T04:46:09.466Z,96986.47
2024-01-15T04:47:07.068Z,96984.16
2024-01-15T04:48:07.977Z,96983.48
2024-01-15T04:49:08.249Z,96982.41
2024-01-15T04:50:09.037Z,96983.97
2024-01-15T04:51:10.468Z,96978.3
2024-01-15T04:52:08.940Z,96973.3
2024-01-15T04:53:12.660Z,96973.23
2024-01-15T04:54:10.939Z,96980.26
2024-01-15T04:55:11.413Z,96977.8
2024-01-15T04:56:12.046Z,96978.88
2024-01-15T04:57:12.319Z,96980.73
2024-01-15T04:58:12.453Z,96977.02
2024-01-15T04:59:12.917Z,96974.86
2024-01-15T05:00:14.167Z,96976.14
2024-01-15T05:01:16.726Z,96974.57
2024-01-15T05:02:14.758Z,96973.7
2024-01-15T05:03:15.369Z,96971.7
2024-01-15T05:04:15.739Z,96977.4
2024-01-15T05:05:16.438Z,96975.53
2024-01-15T05:06:16.578Z,96973.02
2024-01-15T05:07:16.729Z,96972.94
2024-01-15T05:08:17.147Z,96975.7
2024-01-15T05:09:17.882Z,96975.03
2024-01-15T05:10:17.964Z,96972.44
2024-01-15T05:11:19.305Z,96972.09
2024-01-15T05:12:18.910Z,96968.81
2024-01-15T05:13:19.115Z,96969.58
2024-01-15T05:14:19.542Z,96969.2
2024-01-15T05:15:19.952Z,96971.33
2024-01-15T05:16:20.356Z,96969.34
2024-01-15T05:17:20.664Z,96969.88
2024-01-15T05:18:21.365Z,96964.73
2024-01-15T05:19:21.777Z,96961.14
2024-01-15T05:20:22.986Z,96965.11
2024-01-15T05:21:22.516Z,96961.52
2024-01-15T05:22:22.766Z,96962.3
2024-01-15T05:23:23.190Z,96961.14
2024-01-15T05:24:24.349Z,96960.28
2024-01-15T05:25:25.024Z,96962.75
2024-01-15T05:26:25.162Z,96961.84
2024-01-15T05:27:25.563Z,96961.23
2024-01-15T05:28:25.765Z,96955.4
2024-01-15T05:29:26.133Z,96958.16
2024-01-15T05:30:27.487Z,96958.99
2024-01-15T05:31:27.720Z,96959.52
2024-01-15T05:32:28.131Z,96954.06
2024-01-15T05:33:28.805Z,96952.64
2024-01-15T05:34:28.945Z,96951.83
2024-01-15T05:35:29.414Z,96953.68
2024-01-15T05:36:29.740Z,96948.95
2024-01-15T05:37:30.179Z,96955.38
2024-01-15T05:38:30.857Z,96954.28
2024-01-15T05:39:31.023Z,96946.5
2024-01-15T05:40:31.386Z,96949.31
2024-01-15T05:41:31.541Z,96947.45
2024-01-15T05:42:32.232Z,96943.75
2024-01-15T05:43:32.831Z,96945.75
2024-01-15T05:44:32.788Z,96940.27
2024-01-15T05:45:35.295Z,96944.53
2024-01-15T05:46:33.670Z,96943.34
2024-01-15T05:47:34.131Z,96944.59
2024-01-15T05:48:34.689Z,96944.9
2024-01-15T05:49:34.937Z,96946.75
2024-01-15T05:50:35.346Z,96943.77
2024-01-15T05:51:35.804Z,96946.7
2024-01-15T05:52:36.285Z,96940.73
2024-01-15T05:53:36.480Z,96942.65
2024-01-15T05:54:36.968Z,96945.72
2024-01-15T05:55:38.065Z,96944.68
2024-01-15T05:56:37.622Z,96947.06
2024-01-15T05:57:38.167Z,96946.61
2024-01-15T05:58:38.685Z,96944.81
2024-01-15T05:59:38.840Z,96944.39
2024-01-15T06:00:39.510Z,96948.94
2024-01-15T06:01:39.634Z,96943.23
2024-01-15T06:02:40.108Z,96942.24
2024-01-15T06:03:40.522Z,96942.8
2024-01-15T06:04:40.861Z,96940.53
2024-01-15T06:05:41.449Z,96938.94
2024-01-15T06:06:41.636Z,96938.61
2024-01-15T06:07:43.126Z,96940.02
2024-01-15T06:08:42.311Z,96941.16
2024-01-15T06:09:43.001Z,96944.61
2024-01-15T06:10:43.468Z,96947.5
2024-01-15T06:11:44.280Z,96945.7
2024-01-15T06:12:45.590Z,96948.7
2024-01-15T06:13:45.112Z,96946.94
2024-01-15T06:14:45.557Z,96944.23
2024-01-15T06:15:46.092Z,96946.98
2024-01-15T06:16:46.368Z,96948.41
2024-01-15T06:17:46.760Z,96948.05
2024-01-15T06:18:47.526Z,96952.71
2024-01-15T06:19:47.682Z,96950.48
2024-01-15T06:20:47.979Z,96950.88
2024-01-15T06:21:48.359Z,96947.64
2024-01-15T06:22:48.657Z,96952.65
2024-01-15T06:23:49.091Z,96950.94
2024-01-15T06:24:49.623Z,96952.3
2024-01-15T06:25:50.213Z,96951.31
2024-01-15T06:26:50.528Z,96949.45
2024-01-15T06:27:51.148Z,96950.09
2024-01-15T06:28:51.257Z,96948.09
2024-01-15T06:29:51.643Z,96944.45
2024-01-15T06:30:52.023Z,96950.38
2024-01-15T06:31:52.409Z,96952.08
2024-01-15T06:32:52.936Z,96948.41
2024-01-15T06:33:53.225Z,96950.2
2024-01-15T06:34:54.155Z,96953.86
2024-01-15T06:35:54.694Z,96953.25
2024-01-15T06:36:55.284Z,96954.85
2024-01-15T06:37:55.350Z,96950.94
2024-01-15T06:38:56.239Z,96956.44
2024-01-15T06:39:56.319Z,96958.14
2024-01-15T06:40:56.663Z,96949.3
2024-01-15T06:41:56.969Z,96954.38
2024-01-15T06:42:57.375Z,96954.83
2024-01-15T06:43:57.766Z,96956.66
2024-01-15T06:44:58.132Z,96946.99
2024-01-15T06:45:58.776Z,96950.1
2024-01-15T06:46:58.871Z,96949.33
2024-01-15T06:47:59.451Z,96947.98
2024-01-15T06:49:00.051Z,96949.45
2024-01-15T06:50:00.632Z,96953.2
2024-01-15T06:51:00.591Z,96953.75
2024-01-15T06:52:01.093Z,96953.91
2024-01-15T06:53:01.372Z,96949.62
2024-01-15T06:54:01.868Z,96951.82
2024-01-15T06:55:02.164Z,96948.05
2024-01-15T06:56:02.702Z,96948.7
2024-01-15T06:57:03.010Z,96947.61
2024-01-15T06:58:03.656Z,96946.95
2024-01-15T06:59:03.758Z,96941.66
2024-01-15T07:00:04.822Z,96936.84
2024-01-15T07:01:05.157Z,96939
2024-01-15T07:02:05.621Z,96936.2
2024-01-15T07:03:05.790Z,96934.59
2024-01-15T07:04:05.940Z,96934.53
2024-01-15T07:05:06.819Z,96935.21
2024-01-15T07:06:06.880Z,96939.35
2024-01-15T07:07:06.911Z,96934.28
2024-01-15T07:08:07.517Z,96940.92
2024-01-15T07:09:07.743Z,96940.38
2024-01-15T07:10:09.436Z,96940.96
2024-01-15T07:11:08.846Z,96940.17
2024-01-15T07:12:09.223Z,96938.92
2024-01-15T07:13:10.104Z,96933.09
2024-01-15T07:14:09.910Z,96937.33
2024-01-15T07:15:10.564Z,96933.83
2024-01-15T07:16:10.752Z,96938
2024-01-15T07:17:11.141Z,96932.73
2024-01-15T07:18:11.534Z,96934.66
2024-01-15T07:19:12.585Z,96935.6
2024-01-15T07:20:12.874Z,96936.3
2024-01-15T07:21:12.877Z,96932.84
2024-01-15T07:22:13.312Z,96930.93
2024-01-15T07:23:13.527Z,96930.5
2024-01-15T07:24:13.762Z,96927.38
2024-01-15T07:25:14.296Z,96932.56
2024-01-15T07:26:15.103Z,96931.41
2024-01-15T07:27:15.015Z,96931.14
2024-01-15T07:28:15.436Z,96931.78
2024-01-15T07:29:16.144Z,96930.41
2024-01-15T07:30:16.587Z,96925.42
2024-01-15T07:31:19.626Z,96929.45
2024-01-15T07:32:17.396Z,96936.42
2024-01-15T07:33:17.876Z,96933.89
2024-01-15T07:34:18.780Z,96931.31
2024-01-15T07:35:18.961Z,96928.48
2024-01-15T07:36:18.916Z,96928.52
2024-01-15T07:37:19.259Z,96930.29
2024-01-15T07:38:19.813Z,96927.65
2024-01-15T07:39:20.415Z,96930.03
2024-01-15T07:40:20.406Z,96929.2
2024-01-15T07:41:20.859Z,96928.02
2024-01-15T07:42:21.281Z,96930.36
2024-01-15T07:43:21.660Z,96926.2
2024-01-15T07:44:22.908Z,96924.77
2024-01-15T07:45:23.079Z,96931.88
2024-01-15T07:46:23.462Z,96932.98
2024-01-15T07:47:24.072Z,96931.86
2024-01-15T07:48:24.445Z,96933.66
2024-01-15T07:49:24.827Z,96926.34
2024-01-15T07:50:25.083Z,96925.49
2024-01-15T07:51:26.136Z,96926.44
2024-01-15T07:52:26.032Z,96927.07
2024-01-15T07:53:26.164Z,96924.57
2024-01-15T07:54:26.815Z,96926.95
2024-01-15T07:55:27.918Z,96928.45
2024-01-15T07:56:28.298Z,96925.91
2024-01-15T07:57:28.994Z,96923.94
2024-01-15T07:58:28.978Z,96921.75
2024-01-15T07:59:29.644Z,96927.09
2024-01-15T08:00:30.124Z,96923.58
2024-01-15T08:01:30.313Z,96923.52
2024-01-15T08:02:32.658Z,96924.59
2024-01-15T08:03:31.775Z,96928.89
2024-01-15T08:04:32.271Z,96927.04
2024-01-15T08:05:32.477Z,96921.67
2024-01-15T08:06:32.965Z,96919.06
2024-01-15T08:07:33.307Z,96924.48
2024-01-15T08:08:33.818Z,96922.66
2024-01-15T08:09:34.292Z,96921.22
2024-01-15T08:10:34.515Z,96918.52
2024-01-15T08:11:35.556Z,96920.23
2024-01-15T08:12:35.517Z,96919.03
2024-01-15T08:13:35.843Z,96916.01
2024-01-15T08:14:36.299Z,96915.15
2024-01-15T08:15:36.730Z,96915.44
2024-01-15T08:16:37.587Z,96916.5
2024-01-15T08:17:37.394Z,96916.61
2024-01-15T08:18:37.718Z,96915.55
2024-01-15T08:19:38.336Z,96915.83
2024-01-15T08:20:38.620Z,96913.36
2024-01-15T08:21:39.089Z,96915.05
2024-01-15T08:22:40.315Z,96913.86
2024-01-15T08:23:40.039Z,96916.69
2024-01-15T08:24:40.504Z,96915.48
2024-01-15T08:25:40.898Z,96912.91
2024-01-15T08:26:40.982Z,96911.3
2024-01-15T08:27:44.516Z,96906.92
2024-01-15T08:28:42.572Z,96908.7
2024-01-15T08:29:42.655Z,96909.39
2024-01-15T08:30:43.083Z,96906.27
2024-01-15T08:31:43.548Z,96908.28
2024-01-15T08:32:44.229Z,96911.06
2024-01-15T08:33:44.510Z,96908.72
2024-01-15T08:34:44.708Z,96909.49
2024-01-15T08:35:45.033Z,96905.91
2024-01-15T08:36:45.303Z,96906.08
2024-01-15T08:37:46.491Z,96911.37
2024-01-15T08:38:46.806Z,96904.48
2024-01-15T08:39:50.255Z,96904.53
2024-01-15T08:40:50.521Z,96907.38
2024-01-15T08:41:49.413Z,96904.91
2024-01-15T08:42:49.888Z,96902.1
2024-01-15T08:43:50.096Z,96906.69
2024-01-15T08:44:50.757Z,96904.45
2024-01-15T08:45:51.581Z,96902.62
2024-01-15T08:46:51.934Z,96904.89
2024-01-15T08:47:52.514Z,96902.52
2024-01-15T08:48:52.858Z,96902.86
2024-01-15T08:49:53.143Z,96904.75
2024-01-15T08:50:54.146Z,96903.75
2024-01-15T08:51:54.181Z,96902.89
2024-01-15T08:52:54.537Z,96902.75
2024-01-15T08:53:54.693Z,96902.06
2024-01-15T08:54:56.504Z,96901.38
2024-01-15T08:55:55.462Z,96899.86
2024-01-15T08:56:56.076Z,96891.95
2024-01-15T08:57:56.403Z,96891.12
2024-01-15T08:58:56.567Z,96888.22
2024-01-15T08:59:57.003Z,96889.71
2024-01-15T09:00:57.761Z,96892.45
2024-01-15T09:01:57.825Z,96894.94
2024-01-15T09:02:58.117Z,96892.49
2024-01-15T09:03:58.415Z,96889.2
2024-01-15T09:04:58.972Z,96892.53
2024-01-15T09:05:59.142Z,96886.83
2024-01-15T09:06:59.704Z,96887.8
2024-01-15T09:07:59.900Z,96886.92
2024-01-15T09:09:00.206Z,96884.89
2024-01-15T09:10:00.743Z,96883.95
2024-01-15T09:11:00.849Z,96880.28
2024-01-15T09:12:01.357Z,96881.31
2024-01-15T09:13:01.853Z,96877.95
2024-01-15T09:14:02.009Z,96876.94
2024-01-15T09:15:02.342Z,96874.88
2024-01-15T09:16:02.491Z,96875.29
2024-01-15T09:17:02.846Z,96872.91
2024-01-15T09:18:06.249Z,96871.77
2024-01-15T09:19:05.682Z,96871.73
2024-01-15T09:20:07.088Z,96873.08
2024-01-15T09:21:06.316Z,96868.09
2024-01-15T09:22:06.718Z,96864.41
2024-01-15T09:23:06.853Z,96863.12
2024-01-15T09:24:07.793Z,96863.81
2024-01-15T09:25:08.180Z,96865.72
2024-01-15T09:26:10.021Z,96865.06
2024-01-15T09:27:08.222Z,96864.8
2024-01-15T09:28:09.404Z,96863.64
2024-01-15T09:29:08.689Z,96866.39
2024-01-15T09:30:09.944Z,96858.17
2024-01-15T09:31:09.545Z,96863.55
2024-01-15T09:32:09.791Z,96861.56
2024-01-15T09:33:10.235Z,96863.5
2024-01-15T09:34:10.499Z,96857.3
2024-01-15T09:35:10.993Z,96856.05
2024-01-15T09:36:11.200Z,96858.98
2024-01-15T09:37:14.852Z,96860.89
2024-01-15T09:38:12.411Z,96858.55
2024-01-15T09:39:12.773Z,96860.02
2024-01-15T09:40:17.189Z,96861.72
2024-01-15T09:41:15.580Z,96859.41
2024-01-15T09:42:15.516Z,96859.11
2024-01-15T09:43:16.234Z,96858.47
2024-01-15T09:44:16.679Z,96857.58
2024-01-15T09:45:16.930Z,96857.12
2024-01-15T09:46:16.857Z,96857.39
2024-01-15T09:47:18.384Z,96853.08
2024-01-15T09:48:17.566Z,96855.23
2024-01-15T09:49:18.403Z,96853.8
2024-01-15T09:50:18.453Z,96854.58
2024-01-15T09:51:19.275Z,96853.95
2024-01-15T09:52:20.418Z,96852.06
2024-01-15T09:53:19.912Z,96852.66
2024-01-15T09:54:19.287Z,96855.98
2024-01-15T09:55:20.092Z,96847.69
2024-01-15T09:56:20.170Z,96848.83
2024-01-15T09:57:20.594Z,96841.94
2024-01-15T09:58:20.935Z,96845.59
2024-01-15T09:59:23.386Z,96845.73
2024-01-15T10:00:23.550Z,96847.45
2024-01-15T10:01:22.236Z,96843.64
2024-01-15T10:02:22.386Z,96840.08
2024-01-15T10:03:22.269Z,96839.45
2024-01-15T10:04:23.099Z,96836.41
2024-01-15T10:05:23.104Z,96835.2
2024-01-15T10:06:23.681Z,96829.95
2024-01-15T10:07:26.682Z,96828.31
2024-01-15T10:08:24.657Z,96824.46
2024-01-15T10:09:24.441Z,96823.48
2024-01-15T10:10:24.980Z,96824.59
2024-01-15T10:11:25.352Z,96823.09
2024-01-15T10:12:25.963Z,96822.34
2024-01-15T10:13:25.915Z,96822.23
2024-01-15T10:14:26.032Z,96820.12
2024-01-15T10:15:29.069Z,96822.08
2024-01-15T10:16:29.529Z,96820.3
2024-01-15T10:17:27.115Z,96815.34
2024-01-15T10:18:27.709Z,96817.38
2024-01-15T10:19:27.826Z,96820.8
2024-01-15T10:20:28.173Z,96818.61
2024-01-15T10:21:28.597Z,96819.52
2024-01-15T10:22:28.894Z,96820.25
2024-01-15T10:23:29.172Z,96819.61
2024-01-15T10:24:29.425Z,96821.86
2024-01-15T10:25:30.728Z,96819.38
2024-01-15T10:26:31.079Z,96812.73
2024-01-15T10:27:30.506Z,96815.52
2024-01-15T10:28:32.160Z,96814.06
2024-01-15T10:29:31.157Z,96814.81
2024-01-15T10:30:33.051Z,96813.87
2024-01-15T10:31:32.325Z,96813.08
2024-01-15T10:32:32.254Z,96809.23
2024-01-15T10:33:32.632Z,96811.88
2024-01-15T10:34:32.768Z,96810.83
2024-01-15T10:35:36.379Z,96810.38
2024-01-15T10:36:33.814Z,96808.52
2024-01-15T10:37:36.818Z,96810.05
2024-01-15T10:38:34.515Z,96809.45
2024-01-15T10:39:34.972Z,96805.95
2024-01-15T10:40:35.336Z,96807.74
2024-01-15T10:41:35.974Z,96800.64
2024-01-15T10:42:35.906Z,96803.3
2024-01-15T10:43:36.310Z,96802.12
2024-01-15T10:44:37.196Z,96801.52
2024-01-15T10:45:36.805Z,96800.48
2024-01-15T10:46:37.848Z,96801.53
2024-01-15T10:47:37.984Z,96803.12
2024-01-15T10:48:37.908Z,96800.09
2024-01-15T10:49:38.237Z,96802.34
2024-01-15T10:50:38.509Z,96799.62
2024-01-15T10:51:39.867Z,96800.09
2024-01-15T10:52:40.598Z,96795.31
2024-01-15T10:53:40.405Z,96798.91
2024-01-15T10:54:40.674Z,96798.67
2024-01-15T10:55:40.385Z,96797.98
2024-01-15T10:56:41.477Z,96793.48
2024-01-15T10:57:40.750Z,96795.19
2024-01-15T10:58:42.801Z,96793.58
2024-01-15T10:59:41.479Z,96790.56
2024-01-15T11:00:41.976Z,96789.03
2024-01-15T11:01:44.086Z,96790.02
2024-01-15T11:02:42.986Z,96790.31
2024-01-15T11:03:44.417Z,96789.03
2024-01-15T11:04:43.178Z,96786.17
2024-01-15T11:05:44.766Z,96782.44
2024-01-15T11:06:46.748Z,96781.3
2024-01-15T11:07:44.591Z,96781.78
2024-01-15T11:08:45.267Z,96784
2024-01-15T11:09:46.440Z,96782.2
2024-01-15T11:10:48.395Z,96785.23
2024-01-15T11:11:47.228Z,96786.3
2024-01-15T11:12:49.088Z,96781.5
2024-01-15T11:13:49.361Z,96782.34
2024-01-15T11:14:50.544Z,96782.28
2024-01-15T11:16:57.787Z,96776.05
2024-01-15T11:18:02.534Z,96777.95
2024-01-15T11:19:04.259Z,96776.2
2024-01-15T11:20:02.102Z,96775.05
2024-01-15T11:22:03.950Z,96768.62
2024-01-15T11:23:04.584Z,96770.26
2024-01-15T11:24:04.921Z,96767.65
2024-01-15T11:27:09.178Z,96765.38
2024-01-15T11:28:07.991Z,96762.62
2024-01-15T11:30:14.279Z,96759.3
2024-01-15T11:31:15.139Z,96758.75
2024-01-15T11:32:13.648Z,96763.2
2024-01-15T11:34:19.478Z,96752.77
2024-01-15T11:35:19.820Z,96749.5
2024-01-15T11:36:19.934Z,96751.05
2024-01-15T11:37:21.191Z,96748.41
2024-01-15T11:38:29.765Z,96749.88
2024-01-15T11:40:39.684Z,96750.73
2024-01-15T11:41:29.725Z,96748.19
2024-01-15T11:42:27.393Z,96747.45
2024-01-15T11:43:27.875Z,96750.67
2024-01-15T11:44:28.432Z,96747.03
2024-01-15T11:45:29.191Z,96744.95
2024-01-15T11:46:37.099Z,96749.98
2024-01-15T11:48:44.600Z,96739.24
2024-01-15T11:50:45.717Z,96746.07
2024-01-15T11:51:43.479Z,96740.47
2024-01-15T11:52:55.561Z,96742.94
2024-01-15T11:53:52.320Z,96739.69
2024-01-15T11:55:02.845Z,96738.82
2024-01-15T11:55:52.763Z,96735.69
2024-01-15T11:56:51.064Z,96729.73
2024-01-15T11:57:54.803Z,96727.98
2024-01-15T11:58:52.735Z,96728.44
2024-01-15T11:59:52.779Z,96727.62
2024-01-15T12:00:54.736Z,96725.59
2024-01-15T12:01:54.361Z,96724.67